Dafter, Michigan
Current Conditions -  °F | °C
As of 12:55 PM on Tuesday 21 Oct 2014 (Local Time) from KCIU Reporting Station
Clear Clear  
Wind Chill: 36°   Ceiling: Unl
Heat Index: 43°   Visibility: 10mi
Dew Point: 28°   Wind: 13mph
Humidity: 57%   Direction: 20°NNE
Pressure: 30.22"   Gusts: 21mph
Location:  46.36°N, 84.43°W
Report Text: KCIU 211655Z AUTO 02011G18KT 10SM CLR 06/M02 A3022 RMK AO1
Loading
Personal Weather Stations






























Interactive Weather Map
Tropical Storm Tracking
New forecast layout! Learn more

10-Day Weather Forecast

Advertisements
Track Severe Weather on mobile